Terminal Aerodrome Forecast
Issued by NWS Indianapolis, IN

Home | Current Version | Previous Version | Text Only | Print | Product List | Glossary On
Versions: 1 2 3 4 5 6 7 8 9 10 11 12 13 14 15 16 17 18 19 20 21 22 23 24 25 26 27 28 29 30 31 32
000
FTUS43 KIND 302300
TAFIND
TAF
KIND 302320Z 3100/0106 VRB07KT P6SM VCTS SCT040CB BKN060
     FM310200 28004KT P6SM SCT060
     FM310900 29002KT 5SM BR BCFG FEW060
     FM311300 27007KT P6SM SCT050=

USA.gov is the U.S. government's official web portal to all federal, state and local government web resources and services.